sensor_id;sensor_type;location;lat;lon;timestamp;P1;durP1;ratioP1;P2;durP2;ratioP2
46745;SDS011;32493;50.514;9.678;2023-08-07T00:00:20;1.25;;;0.93;;
46745;SDS011;32493;50.514;9.678;2023-08-07T00:02:26;1.40;;;1.30;;
46745;SDS011;32493;50.514;9.678;2023-08-07T00:04:33;2.45;;;1.30;;
46745;SDS011;32493;50.514;9.678;2023-08-07T00:06:41;2.15;;;1.17;;
46745;SDS011;32493;50.514;9.678;2023-08-07T00:08:49;3.25;;;1.00;;
46745;SDS011;32493;50.514;9.678;2023-08-07T00:11:03;1.95;;;1.42;;
46745;SDS011;32493;50.514;9.678;2023-08-07T00:13:07;1.92;;;1.30;;
46745;SDS011;32493;50.514;9.678;2023-08-07T00:15:16;2.10;;;1.50;;
46745;SDS011;32493;50.514;9.678;2023-08-07T00:17:29;1.67;;;1.25;;
46745;SDS011;32493;50.514;9.678;2023-08-07T00:22:00;4.68;;;1.10;;
46745;SDS011;32493;50.514;9.678;2023-08-07T00:24:12;3.30;;;1.48;;
46745;SDS011;32493;50.514;9.678;2023-08-07T00:26:18;4.32;;;1.60;;
46745;SDS011;32493;50.514;9.678;2023-08-07T00:28:26;2.03;;;1.50;;
46745;SDS011;32493;50.514;9.678;2023-08-07T00:30:34;3.65;;;1.85;;
46745;SDS011;32493;50.514;9.678;2023-08-07T00:32:43;3.45;;;1.08;;
46745;SDS011;32493;50.514;9.678;2023-08-07T00:34:54;2.55;;;1.20;;
46745;SDS011;32493;50.514;9.678;2023-08-07T00:37:03;2.00;;;1.20;;
46745;SDS011;32493;50.514;9.678;2023-08-07T00:39:11;6.00;;;1.83;;
46745;SDS011;32493;50.514;9.678;2023-08-07T00:41:16;1.88;;;1.20;;
46745;SDS011;32493;50.514;9.678;2023-08-07T00:43:26;2.63;;;1.40;;
46745;SDS011;32493;50.514;9.678;2023-08-07T00:45:32;2.78;;;1.00;;
46745;SDS011;32493;50.514;9.678;2023-08-07T00:48:04;2.20;;;1.10;;
46745;SDS011;32493;50.514;9.678;2023-08-07T00:50:23;3.80;;;1.00;;
46745;SDS011;32493;50.514;9.678;2023-08-07T00:52:52;1.23;;;0.75;;
46745;SDS011;32493;50.514;9.678;2023-08-07T00:54:59;3.22;;;1.00;;
46745;SDS011;32493;50.514;9.678;2023-08-07T00:57:09;0.73;;;0.63;;
46745;SDS011;32493;50.514;9.678;2023-08-07T01:01:21;2.50;;;0.60;;
46745;SDS011;32493;50.514;9.678;2023-08-07T01:03:30;2.08;;;1.02;;
46745;SDS011;32493;50.514;9.678;2023-08-07T01:05:35;2.45;;;0.68;;
46745;SDS011;32493;50.514;9.678;2023-08-07T01:07:40;3.35;;;0.60;;
46745;SDS011;32493;50.514;9.678;2023-08-07T01:09:52;2.25;;;0.43;;
46745;SDS011;32493;50.514;9.678;2023-08-07T01:12:10;1.58;;;0.60;;
46745;SDS011;32493;50.514;9.678;2023-08-07T01:14:23;0.65;;;0.50;;
46745;SDS011;32493;50.514;9.678;2023-08-07T01:16:50;0.55;;;0.32;;
46745;SDS011;32493;50.514;9.678;2023-08-07T01:19:03;0.50;;;0.30;;
46745;SDS011;32493;50.514;9.678;2023-08-07T01:21:19;2.38;;;0.40;;
46745;SDS011;32493;50.514;9.678;2023-08-07T01:23:34;2.63;;;0.60;;
46745;SDS011;32493;50.514;9.678;2023-08-07T01:25:42;1.80;;;0.25;;
46745;SDS011;32493;50.514;9.678;2023-08-07T01:27:50;0.35;;;0.30;;
46745;SDS011;32493;50.514;9.678;2023-08-07T01:30:11;0.55;;;0.30;;
46745;SDS011;32493;50.514;9.678;2023-08-07T01:32:38;1.38;;;0.28;;
46745;SDS011;32493;50.514;9.678;2023-08-07T01:34:54;2.20;;;0.20;;
46745;SDS011;32493;50.514;9.678;2023-08-07T01:37:05;1.70;;;0.28;;
46745;SDS011;32493;50.514;9.678;2023-08-07T01:39:29;1.33;;;0.20;;
46745;SDS011;32493;50.514;9.678;2023-08-07T01:41:40;0.47;;;0.10;;
46745;SDS011;32493;50.514;9.678;2023-08-07T01:43:54;0.65;;;0.30;;
46745;SDS011;32493;50.514;9.678;2023-08-07T01:46:02;0.40;;;0.20;;
46745;SDS011;32493;50.514;9.678;2023-08-07T01:48:11;0.30;;;0.28;;
46745;SDS011;32493;50.514;9.678;2023-08-07T01:50:21;0.55;;;0.10;;
46745;SDS011;32493;50.514;9.678;2023-08-07T01:52:28;1.83;;;0.20;;
46745;SDS011;32493;50.514;9.678;2023-08-07T01:54:44;0.75;;;0.10;;
46745;SDS011;32493;50.514;9.678;2023-08-07T01:56:55;0.90;;;0.20;;
46745;SDS011;32493;50.514;9.678;2023-08-07T01:59:01;0.30;;;0.17;;
46745;SDS011;32493;50.514;9.678;2023-08-07T02:01:18;1.20;;;0.20;;
46745;SDS011;32493;50.514;9.678;2023-08-07T02:03:27;0.57;;;0.10;;
46745;SDS011;32493;50.514;9.678;2023-08-07T02:05:37;1.20;;;0.10;;
46745;SDS011;32493;50.514;9.678;2023-08-07T02:07:51;0.10;;;0.10;;
46745;SDS011;32493;50.514;9.678;2023-08-07T02:10:05;0.35;;;0.20;;
46745;SDS011;32493;50.514;9.678;2023-08-07T02:12:12;0.20;;;0.10;;
46745;SDS011;32493;50.514;9.678;2023-08-07T02:14:21;0.35;;;0.20;;
46745;SDS011;32493;50.514;9.678;2023-08-07T02:16:29;0.30;;;0.20;;
46745;SDS011;32493;50.514;9.678;2023-08-07T02:18:40;0.20;;;0.17;;
46745;SDS011;32493;50.514;9.678;2023-08-07T02:20:49;0.30;;;0.20;;
46745;SDS011;32493;50.514;9.678;2023-08-07T02:22:54;2.17;;;0.15;;
46745;SDS011;32493;50.514;9.678;2023-08-07T02:25:06;1.27;;;0.10;;
46745;SDS011;32493;50.514;9.678;2023-08-07T02:27:12;1.08;;;0.10;;
46745;SDS011;32493;50.514;9.678;2023-08-07T02:29:20;0.17;;;0.13;;
46745;SDS011;32493;50.514;9.678;2023-08-07T02:31:28;1.75;;;0.30;;
46745;SDS011;32493;50.514;9.678;2023-08-07T02:33:36;0.40;;;0.25;;
46745;SDS011;32493;50.514;9.678;2023-08-07T02:35:45;0.20;;;0.17;;
46745;SDS011;32493;50.514;9.678;2023-08-07T02:37:54;0.10;;;0.10;;
46745;SDS011;32493;50.514;9.678;2023-08-07T02:40:00;1.20;;;0.22;;
46745;SDS011;32493;50.514;9.678;2023-08-07T02:42:10;2.33;;;0.20;;
46745;SDS011;32493;50.514;9.678;2023-08-07T02:44:33;0.65;;;0.30;;
46745;SDS011;32493;50.514;9.678;2023-08-07T02:46:40;0.40;;;0.40;;
46745;SDS011;32493;50.514;9.678;2023-08-07T02:50:55;0.80;;;0.50;;
46745;SDS011;32493;50.514;9.678;2023-08-07T02:53:02;0.68;;;0.40;;
46745;SDS011;32493;50.514;9.678;2023-08-07T02:55:10;1.13;;;0.30;;
46745;SDS011;32493;50.514;9.678;2023-08-07T02:57:18;1.65;;;0.45;;
46745;SDS011;32493;50.514;9.678;2023-08-07T02:59:30;0.50;;;0.50;;
46745;SDS011;32493;50.514;9.678;2023-08-07T03:01:39;0.75;;;0.40;;
46745;SDS011;32493;50.514;9.678;2023-08-07T03:03:48;0.20;;;0.20;;
46745;SDS011;32493;50.514;9.678;2023-08-07T03:05:54;0.40;;;0.40;;
46745;SDS011;32493;50.514;9.678;2023-08-07T03:08:03;3.15;;;0.77;;
46745;SDS011;32493;50.514;9.678;2023-08-07T03:10:10;0.65;;;0.57;;
46745;SDS011;32493;50.514;9.678;2023-08-07T03:12:23;1.50;;;0.70;;
46745;SDS011;32493;50.514;9.678;2023-08-07T03:14:29;1.75;;;0.60;;
46745;SDS011;32493;50.514;9.678;2023-08-07T03:16:38;1.67;;;0.80;;
46745;SDS011;32493;50.514;9.678;2023-08-07T03:18:45;1.00;;;0.50;;
46745;SDS011;32493;50.514;9.678;2023-08-07T03:20:54;0.80;;;0.77;;
46745;SDS011;32493;50.514;9.678;2023-08-07T03:22:59;1.63;;;0.85;;
46745;SDS011;32493;50.514;9.678;2023-08-07T03:25:09;2.05;;;1.00;;
46745;SDS011;32493;50.514;9.678;2023-08-07T03:27:19;1.42;;;0.90;;
46745;SDS011;32493;50.514;9.678;2023-08-07T03:29:30;1.55;;;0.90;;
46745;SDS011;32493;50.514;9.678;2023-08-07T03:31:36;2.17;;;1.00;;
46745;SDS011;32493;50.514;9.678;2023-08-07T03:33:42;1.20;;;0.80;;
46745;SDS011;32493;50.514;9.678;2023-08-07T03:35:51;1.10;;;0.95;;
46745;SDS011;32493;50.514;9.678;2023-08-07T03:38:00;0.90;;;0.80;;
46745;SDS011;32493;50.514;9.678;2023-08-07T03:40:11;0.80;;;0.80;;
46745;SDS011;32493;50.514;9.678;2023-08-07T03:42:23;0.80;;;0.80;;
46745;SDS011;32493;50.514;9.678;2023-08-07T03:44:30;0.80;;;0.40;;
46745;SDS011;32493;50.514;9.678;2023-08-07T03:46:39;0.70;;;0.50;;
46745;SDS011;32493;50.514;9.678;2023-08-07T03:48:47;0.45;;;0.40;;
46745;SDS011;32493;50.514;9.678;2023-08-07T03:51:01;0.93;;;0.50;;
46745;SDS011;32493;50.514;9.678;2023-08-07T03:53:30;0.60;;;0.50;;
46745;SDS011;32493;50.514;9.678;2023-08-07T03:55:37;1.70;;;0.57;;
46745;SDS011;32493;50.514;9.678;2023-08-07T03:57:52;0.60;;;0.30;;
46745;SDS011;32493;50.514;9.678;2023-08-07T04:00:00;1.02;;;0.35;;
46745;SDS011;32493;50.514;9.678;2023-08-07T04:02:14;1.67;;;0.57;;
46745;SDS011;32493;50.514;9.678;2023-08-07T04:04:21;1.70;;;0.60;;
46745;SDS011;32493;50.514;9.678;2023-08-07T04:06:29;0.30;;;0.30;;
46745;SDS011;32493;50.514;9.678;2023-08-07T04:08:38;1.87;;;0.50;;
46745;SDS011;32493;50.514;9.678;2023-08-07T04:10:52;1.08;;;0.30;;
46745;SDS011;32493;50.514;9.678;2023-08-07T04:13:10;0.63;;;0.40;;
46745;SDS011;32493;50.514;9.678;2023-08-07T04:15:26;0.85;;;0.30;;
46745;SDS011;32493;50.514;9.678;2023-08-07T04:17:36;0.82;;;0.40;;
46745;SDS011;32493;50.514;9.678;2023-08-07T04:19:51;0.30;;;0.30;;
46745;SDS011;32493;50.514;9.678;2023-08-07T04:22:00;0.20;;;0.20;;
46745;SDS011;32493;50.514;9.678;2023-08-07T04:24:06;0.57;;;0.20;;
46745;SDS011;32493;50.514;9.678;2023-08-07T04:26:15;2.15;;;0.40;;
46745;SDS011;32493;50.514;9.678;2023-08-07T04:28:23;0.90;;;0.28;;
46745;SDS011;32493;50.514;9.678;2023-08-07T04:30:34;1.02;;;0.50;;
46745;SDS011;32493;50.514;9.678;2023-08-07T04:32:50;1.33;;;0.38;;
46745;SDS011;32493;50.514;9.678;2023-08-07T04:34:59;2.10;;;0.65;;
46745;SDS011;32493;50.514;9.678;2023-08-07T04:37:15;1.75;;;0.70;;
46745;SDS011;32493;50.514;9.678;2023-08-07T04:39:22;1.13;;;0.50;;
46745;SDS011;32493;50.514;9.678;2023-08-07T04:41:29;0.70;;;0.50;;
46745;SDS011;32493;50.514;9.678;2023-08-07T04:43:40;0.60;;;0.40;;
46745;SDS011;32493;50.514;9.678;2023-08-07T04:45:49;1.05;;;0.30;;
46745;SDS011;32493;50.514;9.678;2023-08-07T04:47:52;0.43;;;0.30;;
46745;SDS011;32493;50.514;9.678;2023-08-07T04:50:03;1.70;;;0.38;;
46745;SDS011;32493;50.514;9.678;2023-08-07T04:52:11;0.90;;;0.30;;
46745;SDS011;32493;50.514;9.678;2023-08-07T04:54:28;1.52;;;0.40;;
46745;SDS011;32493;50.514;9.678;2023-08-07T04:56:37;0.30;;;0.20;;
46745;SDS011;32493;50.514;9.678;2023-08-07T04:58:52;1.05;;;0.32;;
46745;SDS011;32493;50.514;9.678;2023-08-07T05:00:59;1.10;;;0.38;;
46745;SDS011;32493;50.514;9.678;2023-08-07T05:03:02;1.55;;;0.40;;
46745;SDS011;32493;50.514;9.678;2023-08-07T05:05:17;0.30;;;0.30;;
46745;SDS011;32493;50.514;9.678;2023-08-07T05:07:30;0.17;;;0.17;;
46745;SDS011;32493;50.514;9.678;2023-08-07T05:09:39;0.82;;;0.30;;
46745;SDS011;32493;50.514;9.678;2023-08-07T05:11:50;0.50;;;0.30;;
46745;SDS011;32493;50.514;9.678;2023-08-07T05:13:58;1.00;;;0.30;;
46745;SDS011;32493;50.514;9.678;2023-08-07T05:16:05;0.93;;;0.40;;
46745;SDS011;32493;50.514;9.678;2023-08-07T05:18:13;0.90;;;0.35;;
46745;SDS011;32493;50.514;9.678;2023-08-07T05:20:21;0.55;;;0.30;;
46745;SDS011;32493;50.514;9.678;2023-08-07T05:22:28;0.88;;;0.40;;
46745;SDS011;32493;50.514;9.678;2023-08-07T05:24:38;2.05;;;0.45;;
46745;SDS011;32493;50.514;9.678;2023-08-07T05:26:46;0.70;;;0.20;;
46745;SDS011;32493;50.514;9.678;2023-08-07T05:29:02;0.95;;;0.30;;
46745;SDS011;32493;50.514;9.678;2023-08-07T05:31:08;0.20;;;0.20;;
46745;SDS011;32493;50.514;9.678;2023-08-07T05:33:14;0.20;;;0.20;;
46745;SDS011;32493;50.514;9.678;2023-08-07T05:35:23;0.22;;;0.22;;
46745;SDS011;32493;50.514;9.678;2023-08-07T05:37:31;1.63;;;0.38;;
46745;SDS011;32493;50.514;9.678;2023-08-07T05:40:04;0.30;;;0.30;;
46745;SDS011;32493;50.514;9.678;2023-08-07T05:42:13;0.52;;;0.20;;
46745;SDS011;32493;50.514;9.678;2023-08-07T05:44:22;0.40;;;0.40;;
46745;SDS011;32493;50.514;9.678;2023-08-07T05:46:33;0.55;;;0.40;;
46745;SDS011;32493;50.514;9.678;2023-08-07T05:51:05;0.40;;;0.40;;
46745;SDS011;32493;50.514;9.678;2023-08-07T05:53:15;1.60;;;0.50;;
46745;SDS011;32493;50.514;9.678;2023-08-07T05:55:23;1.02;;;0.80;;
46745;SDS011;32493;50.514;9.678;2023-08-07T05:57:31;0.60;;;0.50;;
46745;SDS011;32493;50.514;9.678;2023-08-07T05:59:47;1.65;;;0.70;;
46745;SDS011;32493;50.514;9.678;2023-08-07T06:02:12;0.50;;;0.50;;
46745;SDS011;32493;50.514;9.678;2023-08-07T06:04:26;1.30;;;0.50;;
46745;SDS011;32493;50.514;9.678;2023-08-07T06:06:35;1.10;;;0.85;;
46745;SDS011;32493;50.514;9.678;2023-08-07T06:08:44;0.80;;;0.73;;
46745;SDS011;32493;50.514;9.678;2023-08-07T06:10:50;2.85;;;1.10;;
46745;SDS011;32493;50.514;9.678;2023-08-07T06:12:55;2.80;;;0.90;;
46745;SDS011;32493;50.514;9.678;2023-08-07T06:15:06;0.60;;;0.50;;
46745;SDS011;32493;50.514;9.678;2023-08-07T06:17:16;2.88;;;1.00;;
46745;SDS011;32493;50.514;9.678;2023-08-07T06:19:24;0.60;;;0.60;;
46745;SDS011;32493;50.514;9.678;2023-08-07T06:21:33;0.80;;;0.80;;
46745;SDS011;32493;50.514;9.678;2023-08-07T06:23:39;0.80;;;0.60;;
46745;SDS011;32493;50.514;9.678;2023-08-07T06:25:46;1.75;;;0.70;;
46745;SDS011;32493;50.514;9.678;2023-08-07T06:28:08;0.95;;;0.38;;
46745;SDS011;32493;50.514;9.678;2023-08-07T06:30:17;1.33;;;0.63;;
46745;SDS011;32493;50.514;9.678;2023-08-07T06:32:22;1.27;;;0.70;;
46745;SDS011;32493;50.514;9.678;2023-08-07T06:34:31;0.73;;;0.40;;
46745;SDS011;32493;50.514;9.678;2023-08-07T06:36:39;1.02;;;0.75;;
46745;SDS011;32493;50.514;9.678;2023-08-07T06:38:47;1.55;;;0.70;;
46745;SDS011;32493;50.514;9.678;2023-08-07T06:42:59;0.95;;;0.65;;
46745;SDS011;32493;50.514;9.678;2023-08-07T06:45:09;2.15;;;0.63;;
46745;SDS011;32493;50.514;9.678;2023-08-07T06:47:44;0.60;;;0.50;;
46745;SDS011;32493;50.514;9.678;2023-08-07T06:49:50;0.90;;;0.52;;
46745;SDS011;32493;50.514;9.678;2023-08-07T06:51:57;1.27;;;0.73;;
46745;SDS011;32493;50.514;9.678;2023-08-07T06:54:03;0.77;;;0.52;;
46745;SDS011;32493;50.514;9.678;2023-08-07T06:56:11;0.90;;;0.50;;
46745;SDS011;32493;50.514;9.678;2023-08-07T06:58:14;0.38;;;0.35;;
46745;SDS011;32493;50.514;9.678;2023-08-07T07:00:23;0.95;;;0.65;;
46745;SDS011;32493;50.514;9.678;2023-08-07T07:02:30;0.75;;;0.60;;
46745;SDS011;32493;50.514;9.678;2023-08-07T07:04:37;1.00;;;0.60;;
46745;SDS011;32493;50.514;9.678;2023-08-07T07:06:41;1.35;;;0.80;;
46745;SDS011;32493;50.514;9.678;2023-08-07T07:08:48;2.72;;;0.80;;
46745;SDS011;32493;50.514;9.678;2023-08-07T07:10:55;2.13;;;0.70;;
46745;SDS011;32493;50.514;9.678;2023-08-07T07:13:03;1.20;;;0.80;;
46745;SDS011;32493;50.514;9.678;2023-08-07T07:15:10;1.70;;;0.90;;
46745;SDS011;32493;50.514;9.678;2023-08-07T07:17:19;1.13;;;0.57;;
46745;SDS011;32493;50.514;9.678;2023-08-07T07:19:25;1.00;;;0.90;;
46745;SDS011;32493;50.514;9.678;2023-08-07T07:21:30;1.13;;;0.60;;
46745;SDS011;32493;50.514;9.678;2023-08-07T07:23:41;3.33;;;0.88;;
46745;SDS011;32493;50.514;9.678;2023-08-07T07:25:51;1.10;;;0.82;;
46745;SDS011;32493;50.514;9.678;2023-08-07T07:28:00;1.10;;;1.00;;
46745;SDS011;32493;50.514;9.678;2023-08-07T07:30:06;1.88;;;1.00;;
46745;SDS011;32493;50.514;9.678;2023-08-07T07:32:13;2.40;;;1.00;;
46745;SDS011;32493;50.514;9.678;2023-08-07T07:34:22;3.55;;;1.40;;
46745;SDS011;32493;50.514;9.678;2023-08-07T07:36:29;1.65;;;1.10;;
46745;SDS011;32493;50.514;9.678;2023-08-07T07:38:40;3.97;;;1.10;;
46745;SDS011;32493;50.514;9.678;2023-08-07T07:40:48;1.75;;;1.00;;
46745;SDS011;32493;50.514;9.678;2023-08-07T07:42:58;0.95;;;0.90;;
46745;SDS011;32493;50.514;9.678;2023-08-07T07:45:06;3.90;;;1.10;;
46745;SDS011;32493;50.514;9.678;2023-08-07T07:47:13;1.77;;;1.17;;
46745;SDS011;32493;50.514;9.678;2023-08-07T07:49:21;2.35;;;0.85;;
46745;SDS011;32493;50.514;9.678;2023-08-07T07:51:27;2.08;;;1.00;;
46745;SDS011;32493;50.514;9.678;2023-08-07T07:53:33;1.95;;;1.00;;
46745;SDS011;32493;50.514;9.678;2023-08-07T07:55:37;1.52;;;0.77;;
46745;SDS011;32493;50.514;9.678;2023-08-07T07:57:43;1.75;;;0.88;;
46745;SDS011;32493;50.514;9.678;2023-08-07T07:59:50;1.13;;;1.00;;
46745;SDS011;32493;50.514;9.678;2023-08-07T08:01:56;1.40;;;0.80;;
46745;SDS011;32493;50.514;9.678;2023-08-07T08:04:04;2.85;;;1.20;;
46745;SDS011;32493;50.514;9.678;2023-08-07T08:06:19;2.35;;;0.90;;
46745;SDS011;32493;50.514;9.678;2023-08-07T08:08:25;3.20;;;1.17;;
46745;SDS011;32493;50.514;9.678;2023-08-07T08:10:31;2.30;;;1.10;;
46745;SDS011;32493;50.514;9.678;2023-08-07T08:12:38;1.10;;;1.00;;
46745;SDS011;32493;50.514;9.678;2023-08-07T08:14:43;2.65;;;1.20;;
46745;SDS011;32493;50.514;9.678;2023-08-07T08:16:56;2.55;;;1.00;;
46745;SDS011;32493;50.514;9.678;2023-08-07T08:19:05;1.40;;;1.00;;
46745;SDS011;32493;50.514;9.678;2023-08-07T08:21:15;1.77;;;1.15;;
46745;SDS011;32493;50.514;9.678;2023-08-07T08:23:25;2.00;;;1.00;;
46745;SDS011;32493;50.514;9.678;2023-08-07T08:25:38;1.70;;;0.70;;
46745;SDS011;32493;50.514;9.678;2023-08-07T08:27:45;2.08;;;1.13;;
46745;SDS011;32493;50.514;9.678;2023-08-07T08:29:59;2.13;;;1.50;;
46745;SDS011;32493;50.514;9.678;2023-08-07T08:32:06;1.85;;;1.10;;
46745;SDS011;32493;50.514;9.678;2023-08-07T08:34:16;1.00;;;0.80;;
46745;SDS011;32493;50.514;9.678;2023-08-07T08:36:28;2.40;;;1.02;;
46745;SDS011;32493;50.514;9.678;2023-08-07T08:40:46;2.05;;;1.30;;
46745;SDS011;32493;50.514;9.678;2023-08-07T08:42:56;1.50;;;1.10;;
46745;SDS011;32493;50.514;9.678;2023-08-07T08:45:07;1.00;;;0.90;;
46745;SDS011;32493;50.514;9.678;2023-08-07T08:47:18;0.80;;;0.70;;
46745;SDS011;32493;50.514;9.678;2023-08-07T08:49:28;1.13;;;1.02;;
46745;SDS011;32493;50.514;9.678;2023-08-07T08:51:43;1.13;;;1.02;;
46745;SDS011;32493;50.514;9.678;2023-08-07T08:53:54;2.28;;;1.20;;
46745;SDS011;32493;50.514;9.678;2023-08-07T08:56:02;1.30;;;1.10;;
46745;SDS011;32493;50.514;9.678;2023-08-07T08:58:08;1.40;;;1.10;;
46745;SDS011;32493;50.514;9.678;2023-08-07T09:00:15;3.10;;;1.30;;
46745;SDS011;32493;50.514;9.678;2023-08-07T09:02:23;2.38;;;1.23;;
46745;SDS011;32493;50.514;9.678;2023-08-07T09:04:26;2.50;;;1.30;;
46745;SDS011;32493;50.514;9.678;2023-08-07T09:06:32;1.85;;;0.77;;
46745;SDS011;32493;50.514;9.678;2023-08-07T09:08:46;1.80;;;1.13;;
46745;SDS011;32493;50.514;9.678;2023-08-07T09:10:59;0.77;;;0.70;;
46745;SDS011;32493;50.514;9.678;2023-08-07T09:13:08;2.08;;;1.20;;
46745;SDS011;32493;50.514;9.678;2023-08-07T09:15:20;1.85;;;1.10;;
46745;SDS011;32493;50.514;9.678;2023-08-07T09:17:28;1.05;;;0.90;;
46745;SDS011;32493;50.514;9.678;2023-08-07T09:19:46;2.10;;;0.82;;
46745;SDS011;32493;50.514;9.678;2023-08-07T09:21:52;1.42;;;1.02;;
46745;SDS011;32493;50.514;9.678;2023-08-07T09:23:57;2.80;;;1.17;;
46745;SDS011;32493;50.514;9.678;2023-08-07T09:26:08;1.77;;;1.38;;
46745;SDS011;32493;50.514;9.678;2023-08-07T09:28:19;3.78;;;1.70;;
46745;SDS011;32493;50.514;9.678;2023-08-07T09:30:26;1.35;;;1.10;;
46745;SDS011;32493;50.514;9.678;2023-08-07T09:32:33;1.90;;;1.30;;
46745;SDS011;32493;50.514;9.678;2023-08-07T09:34:40;2.55;;;1.80;;
46745;SDS011;32493;50.514;9.678;2023-08-07T09:36:53;2.33;;;1.33;;
46745;SDS011;32493;50.514;9.678;2023-08-07T09:39:00;5.65;;;1.95;;
46745;SDS011;32493;50.514;9.678;2023-08-07T09:41:15;3.20;;;1.65;;
46745;SDS011;32493;50.514;9.678;2023-08-07T09:43:26;1.65;;;1.55;;
46745;SDS011;32493;50.514;9.678;2023-08-07T09:45:32;2.72;;;0.88;;
46745;SDS011;32493;50.514;9.678;2023-08-07T09:47:46;2.58;;;1.48;;
46745;SDS011;32493;50.514;9.678;2023-08-07T09:50:03;4.20;;;1.50;;
46745;SDS011;32493;50.514;9.678;2023-08-07T09:52:18;1.45;;;0.93;;
46745;SDS011;32493;50.514;9.678;2023-08-07T09:54:26;2.92;;;1.13;;
46745;SDS011;32493;50.514;9.678;2023-08-07T09:56:35;3.13;;;1.17;;
46745;SDS011;32493;50.514;9.678;2023-08-07T09:58:53;3.28;;;1.40;;
46745;SDS011;32493;50.514;9.678;2023-08-07T10:01:04;2.85;;;0.95;;
46745;SDS011;32493;50.514;9.678;2023-08-07T10:03:12;7.35;;;0.90;;
46745;SDS011;32493;50.514;9.678;2023-08-07T10:05:34;1.85;;;1.35;;
46745;SDS011;32493;50.514;9.678;2023-08-07T10:07:42;1.85;;;1.17;;
46745;SDS011;32493;50.514;9.678;2023-08-07T10:09:51;1.70;;;1.17;;
46745;SDS011;32493;50.514;9.678;2023-08-07T10:12:02;3.78;;;1.20;;
46745;SDS011;32493;50.514;9.678;2023-08-07T10:14:12;3.00;;;1.23;;
46745;SDS011;32493;50.514;9.678;2023-08-07T10:16:19;3.42;;;1.35;;
46745;SDS011;32493;50.514;9.678;2023-08-07T10:18:24;2.55;;;0.80;;
46745;SDS011;32493;50.514;9.678;2023-08-07T10:20:32;3.00;;;0.93;;
46745;SDS011;32493;50.514;9.678;2023-08-07T10:22:43;3.22;;;1.00;;
46745;SDS011;32493;50.514;9.678;2023-08-07T10:24:51;5.88;;;1.40;;
46745;SDS011;32493;50.514;9.678;2023-08-07T10:27:05;1.00;;;0.70;;
46745;SDS011;32493;50.514;9.678;2023-08-07T10:29:19;2.53;;;1.10;;
46745;SDS011;32493;50.514;9.678;2023-08-07T10:31:27;1.55;;;0.80;;
46745;SDS011;32493;50.514;9.678;2023-08-07T10:33:35;2.65;;;1.00;;
46745;SDS011;32493;50.514;9.678;2023-08-07T10:35:44;0.85;;;0.60;;
46745;SDS011;32493;50.514;9.678;2023-08-07T10:37:53;1.27;;;0.90;;
46745;SDS011;32493;50.514;9.678;2023-08-07T10:40:10;0.88;;;0.60;;
46745;SDS011;32493;50.514;9.678;2023-08-07T10:42:21;1.58;;;0.82;;
46745;SDS011;32493;50.514;9.678;2023-08-07T10:44:31;3.25;;;1.20;;
46745;SDS011;32493;50.514;9.678;2023-08-07T10:46:55;1.73;;;1.05;;
46745;SDS011;32493;50.514;9.678;2023-08-07T10:49:09;0.80;;;0.80;;
46745;SDS011;32493;50.514;9.678;2023-08-07T10:51:36;2.15;;;0.70;;
46745;SDS011;32493;50.514;9.678;2023-08-07T10:53:44;0.60;;;0.60;;
46745;SDS011;32493;50.514;9.678;2023-08-07T10:55:53;1.05;;;0.95;;
46745;SDS011;32493;50.514;9.678;2023-08-07T10:58:01;0.90;;;0.70;;
46745;SDS011;32493;50.514;9.678;2023-08-07T11:00:08;2.30;;;1.17;;
46745;SDS011;32493;50.514;9.678;2023-08-07T11:02:25;1.80;;;1.60;;
46745;SDS011;32493;50.514;9.678;2023-08-07T11:04:35;0.75;;;0.57;;
46745;SDS011;32493;50.514;9.678;2023-08-07T11:06:47;1.10;;;0.80;;
46745;SDS011;32493;50.514;9.678;2023-08-07T11:08:53;2.13;;;1.10;;
46745;SDS011;32493;50.514;9.678;2023-08-07T11:11:03;0.88;;;0.85;;
46745;SDS011;32493;50.514;9.678;2023-08-07T11:13:12;1.58;;;1.35;;
46745;SDS011;32493;50.514;9.678;2023-08-07T11:15:20;1.23;;;0.90;;
46745;SDS011;32493;50.514;9.678;2023-08-07T11:17:26;2.10;;;1.38;;
46745;SDS011;32493;50.514;9.678;2023-08-07T11:19:36;1.60;;;0.85;;
46745;SDS011;32493;50.514;9.678;2023-08-07T11:21:43;0.93;;;0.77;;
46745;SDS011;32493;50.514;9.678;2023-08-07T11:23:49;1.00;;;0.65;;
46745;SDS011;32493;50.514;9.678;2023-08-07T11:25:57;1.58;;;1.00;;
46745;SDS011;32493;50.514;9.678;2023-08-07T11:28:05;1.88;;;1.13;;
46745;SDS011;32493;50.514;9.678;2023-08-07T11:30:15;1.58;;;0.80;;
46745;SDS011;32493;50.514;9.678;2023-08-07T11:32:42;1.80;;;1.00;;
46745;SDS011;32493;50.514;9.678;2023-08-07T11:35:04;0.98;;;0.88;;
46745;SDS011;32493;50.514;9.678;2023-08-07T11:37:14;1.30;;;0.80;;
46745;SDS011;32493;50.514;9.678;2023-08-07T11:41:31;1.55;;;0.70;;
46745;SDS011;32493;50.514;9.678;2023-08-07T11:43:37;0.60;;;0.60;;
46745;SDS011;32493;50.514;9.678;2023-08-07T11:45:47;0.75;;;0.65;;
46745;SDS011;32493;50.514;9.678;2023-08-07T11:47:50;2.17;;;0.90;;
46745;SDS011;32493;50.514;9.678;2023-08-07T11:49:59;1.90;;;1.00;;
46745;SDS011;32493;50.514;9.678;2023-08-07T11:52:07;1.20;;;0.85;;
46745;SDS011;32493;50.514;9.678;2023-08-07T11:54:14;1.52;;;0.90;;
46745;SDS011;32493;50.514;9.678;2023-08-07T11:56:20;0.88;;;0.70;;
46745;SDS011;32493;50.514;9.678;2023-08-07T11:58:33;1.53;;;0.80;;
46745;SDS011;32493;50.514;9.678;2023-08-07T12:00:49;0.80;;;0.80;;
46745;SDS011;32493;50.514;9.678;2023-08-07T12:02:59;0.43;;;0.43;;
46745;SDS011;32493;50.514;9.678;2023-08-07T12:05:05;1.42;;;1.05;;
46745;SDS011;32493;50.514;9.678;2023-08-07T12:07:16;2.75;;;0.55;;
46745;SDS011;32493;50.514;9.678;2023-08-07T12:09:27;1.85;;;0.70;;
46745;SDS011;32493;50.514;9.678;2023-08-07T12:11:35;0.70;;;0.65;;
46745;SDS011;32493;50.514;9.678;2023-08-07T12:13:44;0.47;;;0.30;;
46745;SDS011;32493;50.514;9.678;2023-08-07T12:16:05;0.60;;;0.57;;
46745;SDS011;32493;50.514;9.678;2023-08-07T12:18:22;1.75;;;0.75;;
46745;SDS011;32493;50.514;9.678;2023-08-07T12:20:30;2.53;;;0.88;;
46745;SDS011;32493;50.514;9.678;2023-08-07T12:22:38;0.95;;;0.68;;
46745;SDS011;32493;50.514;9.678;2023-08-07T12:24:46;2.35;;;0.60;;
46745;SDS011;32493;50.514;9.678;2023-08-07T12:26:52;2.13;;;0.57;;
46745;SDS011;32493;50.514;9.678;2023-08-07T12:29:00;0.88;;;0.68;;
46745;SDS011;32493;50.514;9.678;2023-08-07T12:31:09;0.50;;;0.50;;
46745;SDS011;32493;50.514;9.678;2023-08-07T12:33:18;0.77;;;0.50;;
46745;SDS011;32493;50.514;9.678;2023-08-07T12:35:26;5.32;;;0.80;;
46745;SDS011;32493;50.514;9.678;2023-08-07T12:37:30;1.52;;;0.68;;
46745;SDS011;32493;50.514;9.678;2023-08-07T12:39:36;2.72;;;0.85;;
46745;SDS011;32493;50.514;9.678;2023-08-07T12:41:44;1.35;;;0.77;;
46745;SDS011;32493;50.514;9.678;2023-08-07T12:44:11;1.85;;;1.10;;
46745;SDS011;32493;50.514;9.678;2023-08-07T12:46:21;3.40;;;0.90;;
46745;SDS011;32493;50.514;9.678;2023-08-07T12:48:33;2.97;;;1.15;;
46745;SDS011;32493;50.514;9.678;2023-08-07T12:50:40;1.27;;;0.90;;
46745;SDS011;32493;50.514;9.678;2023-08-07T12:52:46;1.20;;;0.70;;
46745;SDS011;32493;50.514;9.678;2023-08-07T12:54:52;1.23;;;0.60;;
46745;SDS011;32493;50.514;9.678;2023-08-07T12:56:58;2.53;;;1.10;;
46745;SDS011;32493;50.514;9.678;2023-08-07T12:59:04;1.80;;;1.00;;
46745;SDS011;32493;50.514;9.678;2023-08-07T13:01:14;1.83;;;1.17;;
46745;SDS011;32493;50.514;9.678;2023-08-07T13:03:22;2.22;;;1.35;;
46745;SDS011;32493;50.514;9.678;2023-08-07T13:05:29;4.05;;;0.95;;
46745;SDS011;32493;50.514;9.678;2023-08-07T13:07:40;2.15;;;1.35;;
46745;SDS011;32493;50.514;9.678;2023-08-07T13:09:47;1.77;;;0.85;;
46745;SDS011;32493;50.514;9.678;2023-08-07T13:11:58;2.13;;;1.30;;
46745;SDS011;32493;50.514;9.678;2023-08-07T13:14:04;2.55;;;1.20;;
46745;SDS011;32493;50.514;9.678;2023-08-07T13:16:12;5.03;;;1.40;;
46745;SDS011;32493;50.514;9.678;2023-08-07T13:18:18;3.88;;;1.17;;